createdAt,value
2018-07-26T00:02:28.812Z,6.00
2018-07-26T00:05:03.573Z,6.25
2018-07-26T00:07:38.650Z,5.67
2018-07-26T00:10:13.380Z,6.37
2018-07-26T00:12:48.173Z,6.58
2018-07-26T00:15:23.988Z,7.15
2018-07-26T00:17:58.908Z,7.97
2018-07-26T00:20:33.750Z,7.42
2018-07-26T00:23:09.501Z,8.03
2018-07-26T00:25:44.222Z,7.45
2018-07-26T00:28:18.960Z,6.30
2018-07-26T00:30:53.688Z,7.15
2018-07-26T00:33:29.459Z,6.85
2018-07-26T00:36:05.240Z,6.22
2018-07-26T00:38:41.049Z,5.97
2018-07-26T00:41:15.793Z,5.85
2018-07-26T00:43:50.512Z,6.47
2018-07-26T00:46:25.284Z,6.17
2018-07-26T00:49:01.064Z,6.78
2018-07-26T00:51:35.889Z,5.70
2018-07-26T00:54:10.645Z,5.17
2018-07-26T00:56:44.885Z,5.53
2018-07-26T00:59:19.670Z,5.28
2018-07-26T01:01:53.918Z,5.83
2018-07-26T01:04:28.673Z,6.12
2018-07-26T01:07:03.448Z,5.55
2018-07-26T01:09:38.290Z,6.10
2018-07-26T01:12:13.146Z,6.92
2018-07-26T01:14:48.931Z,7.72
2018-07-26T01:17:23.668Z,6.70
2018-07-26T01:19:58.445Z,10.00
2018-07-26T01:22:33.197Z,10.58
2018-07-26T01:25:09.060Z,10.25
2018-07-26T01:27:43.857Z,11.65
2018-07-26T01:30:18.679Z,10.15
2018-07-26T01:32:53.431Z,8.43
2018-07-26T01:35:28.191Z,7.58
2018-07-26T01:38:02.394Z,7.72
2018-07-26T01:40:37.172Z,8.50
2018-07-26T01:43:52.872Z,8.13
2018-07-26T01:46:28.108Z,7.70
2018-07-26T01:49:02.824Z,7.12
2018-07-26T01:51:37.581Z,7.75
2018-07-26T01:54:12.360Z,8.00
2018-07-26T01:56:47.141Z,8.15
2018-07-26T01:59:21.865Z,8.38
2018-07-26T02:01:56.618Z,7.90
2018-07-26T02:04:31.349Z,7.10
2018-07-26T02:07:05.636Z,6.95
2018-07-26T02:09:40.384Z,7.20
2018-07-26T02:12:16.329Z,5.40
2018-07-26T02:14:51.086Z,5.08
2018-07-26T02:17:25.838Z,5.87
2018-07-26T02:20:01.230Z,5.92
2018-07-26T02:22:36.005Z,7.58
2018-07-26T02:25:11.792Z,8.20
2018-07-26T02:27:47.525Z,7.75
2018-07-26T02:30:22.282Z,7.00
2018-07-26T02:32:56.515Z,7.08
2018-07-26T02:35:31.259Z,6.53
2018-07-26T02:38:06.057Z,5.47
2018-07-26T02:40:40.298Z,6.22
2018-07-26T02:43:14.997Z,6.92
2018-07-26T02:45:49.729Z,8.73
2018-07-26T02:48:24.505Z,8.90
2018-07-26T02:50:59.355Z,9.45
2018-07-26T02:53:34.060Z,7.95
2018-07-26T02:56:08.852Z,10.10
2018-07-26T02:58:43.629Z,9.25
2018-07-26T03:01:19.579Z,8.83
2018-07-26T03:03:54.302Z,9.68
2018-07-26T03:06:29.461Z,10.25
2018-07-26T03:09:03.763Z,10.05
2018-07-26T03:11:38.601Z,10.53
2018-07-26T03:14:13.338Z,9.80
2018-07-26T03:16:48.125Z,8.40
2018-07-26T03:19:22.831Z,9.85
2018-07-26T03:21:57.637Z,9.90
2018-07-26T03:24:32.383Z,9.60
2018-07-26T03:27:11.444Z,9.18
2018-07-26T03:29:46.223Z,8.20
2018-07-26T03:32:21.022Z,7.83
2018-07-26T03:34:55.739Z,7.53
2018-07-26T03:37:31.540Z,7.58
2018-07-26T03:40:07.399Z,6.25
2018-07-26T03:42:42.168Z,6.08
2018-07-26T03:45:16.946Z,6.92
2018-07-26T03:47:51.751Z,5.58
2018-07-26T03:50:27.522Z,6.80
2018-07-26T03:53:02.278Z,6.30
2018-07-26T03:55:37.006Z,6.15
2018-07-26T03:58:12.156Z,6.67
2018-07-26T04:00:46.873Z,7.40
2018-07-26T04:03:21.632Z,6.25
2018-07-26T04:05:56.578Z,7.17
2018-07-26T04:08:31.277Z,7.85
2018-07-26T04:11:06.051Z,8.00
2018-07-26T04:13:40.783Z,8.93
2018-07-26T04:16:15.530Z,9.50
2018-07-26T04:18:51.293Z,7.97
2018-07-26T04:21:26.059Z,8.68
2018-07-26T04:24:00.900Z,8.50
2018-07-26T04:26:36.134Z,8.70
2018-07-26T04:29:10.895Z,8.83
2018-07-26T04:31:45.709Z,9.10
2018-07-26T04:34:20.102Z,7.62
2018-07-26T04:36:54.842Z,8.10
2018-07-26T04:39:29.539Z,7.50
2018-07-26T04:42:04.321Z,7.22
2018-07-26T04:44:39.077Z,7.75
2018-07-26T04:47:14.361Z,6.67
2018-07-26T04:49:49.109Z,5.53
2018-07-26T04:52:24.591Z,7.07
2018-07-26T04:54:59.016Z,6.30
2018-07-26T04:57:33.457Z,5.67
2018-07-26T05:00:08.253Z,6.00
2018-07-26T05:02:42.269Z,6.13
2018-07-26T05:05:16.703Z,6.43
2018-07-26T05:07:51.156Z,7.73
2018-07-26T05:10:25.626Z,7.40
2018-07-26T05:13:00.044Z,7.37
2018-07-26T05:15:34.494Z,6.87
2018-07-26T05:18:09.744Z,6.13
2018-07-26T05:20:44.163Z,4.93
2018-07-26T05:23:18.677Z,5.50
2018-07-26T05:25:53.090Z,5.20
2018-07-26T05:28:28.611Z,5.07
2018-07-26T05:31:03.018Z,5.00
2018-07-26T05:33:37.504Z,4.50
2018-07-26T05:36:11.969Z,4.00
2018-07-26T05:38:46.424Z,4.17
2018-07-26T05:41:20.953Z,4.17
2018-07-26T05:43:55.433Z,3.10
2018-07-26T05:46:29.856Z,2.90
2018-07-26T05:49:04.360Z,2.87
2018-07-26T05:51:38.800Z,3.47
2018-07-26T05:54:13.290Z,3.13
2018-07-26T05:56:47.695Z,3.30
2018-07-26T05:59:23.211Z,3.43
2018-07-26T06:01:57.621Z,3.30
2018-07-26T06:04:32.072Z,3.27
2018-07-26T06:07:07.565Z,3.33
2018-07-26T06:09:43.151Z,3.07
2018-07-26T06:12:17.752Z,2.63
2018-07-26T06:14:52.249Z,2.83
2018-07-26T06:17:26.725Z,2.07
2018-07-26T06:20:01.211Z,2.60
2018-07-26T06:22:35.726Z,2.60
2018-07-26T06:25:10.520Z,2.53
2018-07-26T06:27:45.019Z,2.53
2018-07-26T06:30:21.556Z,3.13
2018-07-26T06:32:56.000Z,3.33
2018-07-26T06:35:30.416Z,3.40
2018-07-26T06:38:05.899Z,3.03
2018-07-26T06:40:40.343Z,3.30
2018-07-26T06:43:14.791Z,3.60
2018-07-26T06:45:49.252Z,3.80
2018-07-26T06:48:23.705Z,3.17
2018-07-26T06:50:58.206Z,3.40
2018-07-26T06:53:32.688Z,3.87
2018-07-26T06:56:07.116Z,3.33
2018-07-26T06:58:41.107Z,3.53
2018-07-26T07:01:15.747Z,3.67
2018-07-26T07:03:49.712Z,3.73
2018-07-26T07:06:24.163Z,3.30
2018-07-26T07:08:58.661Z,3.63
2018-07-26T07:11:33.119Z,4.23
2018-07-26T07:14:07.071Z,4.33
2018-07-26T07:16:41.513Z,4.93
2018-07-26T07:19:15.984Z,4.10
2018-07-26T07:21:51.580Z,4.80
2018-07-26T07:24:26.020Z,4.70
2018-07-26T07:27:01.475Z,4.77
2018-07-26T07:29:35.986Z,4.70
2018-07-26T07:32:11.468Z,4.67
2018-07-26T07:34:46.279Z,4.43
2018-07-26T07:37:21.736Z,4.40
2018-07-26T07:39:56.203Z,4.20
2018-07-26T07:42:31.702Z,4.27
2018-07-26T07:45:07.034Z,3.90
2018-07-26T07:47:41.491Z,4.00
2018-07-26T07:50:16.001Z,3.83
2018-07-26T07:52:51.493Z,4.23
2018-07-26T07:55:25.477Z,4.30
2018-07-26T07:57:59.901Z,4.27
2018-07-26T08:00:35.761Z,4.27
2018-07-26T08:03:10.210Z,4.33
2018-07-26T08:05:44.679Z,4.30
2018-07-26T08:08:19.110Z,3.87
2018-07-26T08:10:54.590Z,4.40
2018-07-26T08:13:29.031Z,4.20
2018-07-26T08:16:03.484Z,3.97
2018-07-26T08:18:38.923Z,3.67
2018-07-26T08:21:13.403Z,4.73
2018-07-26T08:23:50.416Z,4.60
2018-07-26T08:26:24.845Z,4.53
2018-07-26T08:29:06.732Z,4.63
2018-07-26T08:31:41.177Z,4.53
2018-07-26T08:34:17.024Z,4.77
2018-07-26T08:36:52.456Z,4.27
2018-07-26T08:39:26.889Z,5.13
2018-07-26T08:42:01.361Z,5.50
2018-07-26T08:44:35.852Z,4.53
2018-07-26T08:47:10.279Z,4.37
2018-07-26T08:49:44.788Z,4.63
2018-07-26T08:52:19.820Z,4.77
2018-07-26T08:54:55.388Z,4.70
2018-07-26T08:57:29.820Z,4.80
2018-07-26T09:00:04.413Z,4.70
2018-07-26T09:02:58.125Z,4.27
2018-07-26T09:05:49.023Z,3.93
2018-07-26T09:08:32.289Z,4.03
2018-07-26T09:11:21.365Z,3.90
2018-07-26T09:14:11.020Z,4.40
2018-07-26T09:16:56.717Z,3.60
2018-07-26T09:19:43.969Z,3.87
2018-07-26T09:22:48.497Z,3.80
2018-07-26T09:25:34.801Z,3.20
2018-07-26T09:28:10.559Z,3.70
2018-07-26T09:30:44.988Z,3.77
2018-07-26T09:39:59.378Z,3.67
2018-07-26T09:42:34.899Z,3.40
2018-07-26T09:45:09.427Z,3.40
2018-07-26T09:47:44.955Z,3.07
2018-07-26T09:50:20.704Z,3.57
2018-07-26T09:52:55.148Z,3.80
2018-07-26T09:55:30.611Z,3.87
2018-07-26T09:58:05.044Z,3.80
2018-07-26T10:00:44.549Z,3.80
2018-07-26T10:03:19.111Z,3.73
2018-07-26T10:05:53.593Z,3.70
2018-07-26T10:08:28.003Z,4.00
2018-07-26T10:11:02.458Z,3.90
2018-07-26T10:13:36.913Z,4.13
2018-07-26T10:16:12.641Z,4.17
2018-07-26T10:18:47.291Z,4.13
2018-07-26T10:21:22.147Z,4.60
2018-07-26T10:23:56.604Z,4.23
2018-07-26T10:26:31.061Z,4.70
2018-07-26T10:29:05.463Z,4.67
2018-07-26T10:31:39.426Z,4.37
2018-07-26T10:34:14.454Z,4.93
2018-07-26T10:36:50.004Z,4.30
2018-07-26T10:39:24.464Z,5.00
2018-07-26T10:41:58.391Z,4.80
2018-07-26T10:44:32.316Z,4.47
2018-07-26T10:47:08.075Z,4.60
2018-07-26T10:49:42.515Z,4.63
2018-07-26T10:52:17.595Z,4.43
2018-07-26T10:54:51.537Z,4.80
2018-07-26T10:57:27.055Z,4.17
2018-07-26T11:00:01.511Z,4.30
2018-07-26T11:02:36.453Z,4.63
2018-07-26T11:05:30.043Z,4.50
2018-07-26T11:08:11.714Z,4.50
2018-07-26T11:10:48.083Z,4.43
2018-07-26T11:13:23.508Z,4.70
2018-07-26T11:15:58.060Z,4.70
2018-07-26T11:18:32.513Z,4.40
2018-07-26T11:21:08.046Z,4.70
2018-07-26T11:23:42.447Z,5.00
2018-07-26T11:26:18.080Z,4.80
2018-07-26T11:28:56.109Z,4.63
2018-07-26T11:31:30.611Z,4.60
2018-07-26T11:34:05.055Z,5.00
2018-07-26T11:36:39.026Z,4.63
2018-07-26T11:39:13.507Z,5.17
2018-07-26T11:41:48.025Z,5.00
2018-07-26T11:44:22.556Z,4.97
2018-07-26T11:46:58.054Z,4.70
2018-07-26T11:49:32.513Z,4.80
2018-07-26T11:52:07.151Z,5.20
2018-07-26T11:54:41.569Z,4.80
2018-07-26T11:57:16.056Z,4.70
2018-07-26T11:59:50.705Z,4.97
2018-07-26T12:02:36.453Z,4.23
2018-07-26T12:05:10.378Z,4.57
2018-07-26T12:07:44.880Z,4.80
2018-07-26T12:10:18.878Z,4.40
2018-07-26T12:12:59.618Z,4.97
2018-07-26T12:15:34.086Z,4.43
2018-07-26T12:18:09.616Z,4.97
2018-07-26T12:20:49.655Z,5.23
2018-07-26T12:23:24.604Z,5.20
2018-07-26T12:25:59.523Z,4.80
2018-07-26T12:28:33.965Z,5.53
2018-07-26T12:31:08.671Z,4.93
2018-07-26T12:33:42.664Z,4.53
2018-07-26T12:36:18.083Z,4.60
2018-07-26T12:38:54.225Z,4.53
2018-07-26T12:41:29.411Z,4.27
2018-07-26T12:44:04.094Z,4.73
2018-07-26T12:46:38.509Z,4.70
2018-07-26T12:49:13.977Z,4.50
2018-07-26T12:51:49.391Z,5.00
2018-07-26T12:54:23.876Z,5.50
2018-07-26T12:56:58.335Z,4.03
2018-07-26T12:59:32.795Z,4.87
2018-07-26T13:02:07.366Z,4.50
2018-07-26T13:04:42.991Z,4.70
2018-07-26T13:07:18.416Z,5.17
2018-07-26T13:10:09.823Z,5.27
2018-07-26T13:12:46.557Z,5.00
2018-07-26T13:15:21.085Z,4.87
2018-07-26T13:17:55.552Z,5.10
2018-07-26T13:20:29.584Z,5.80
2018-07-26T13:23:04.166Z,5.43
2018-07-26T13:25:39.624Z,4.83
2018-07-26T13:28:15.128Z,4.83
2018-07-26T13:30:49.684Z,5.03
2018-07-26T13:33:24.084Z,4.90
2018-07-26T13:36:03.716Z,5.00
2018-07-26T13:38:38.804Z,5.17
2018-07-26T13:41:18.457Z,5.20
2018-07-26T13:43:52.929Z,4.53
2018-07-26T13:46:31.947Z,5.10
2018-07-26T13:49:05.927Z,5.00
2018-07-26T13:51:48.123Z,4.70
2018-07-26T13:54:23.593Z,5.23
2018-07-26T13:57:11.633Z,4.73
2018-07-26T13:59:47.461Z,4.70
2018-07-26T14:02:25.097Z,5.00
2018-07-26T14:04:59.637Z,5.00
2018-07-26T14:07:52.257Z,5.00
2018-07-26T14:10:28.415Z,4.90
2018-07-26T14:13:03.236Z,5.10
2018-07-26T14:15:38.213Z,5.43
2018-07-26T14:18:12.864Z,4.90
2018-07-26T14:20:53.415Z,5.50
2018-07-26T14:23:36.334Z,5.33
2018-07-26T14:26:12.582Z,4.90
2018-07-26T14:28:47.748Z,4.93
2018-07-26T14:31:25.281Z,5.10
2018-07-26T14:34:01.392Z,5.20
2018-07-26T14:36:36.891Z,4.93
2018-07-26T14:39:12.127Z,5.67
2018-07-26T14:41:47.091Z,5.30
2018-07-26T14:44:21.577Z,5.03
2018-07-26T14:47:18.090Z,5.57
2018-07-26T14:49:53.655Z,5.20
2018-07-26T14:52:28.110Z,4.77
2018-07-26T14:55:02.225Z,5.23
2018-07-26T14:57:37.671Z,5.30
2018-07-26T15:00:12.212Z,5.60
2018-07-26T15:02:46.933Z,5.10
2018-07-26T15:05:21.439Z,5.70
2018-07-26T15:07:55.897Z,4.90
2018-07-26T15:10:30.516Z,4.93
2018-07-26T15:13:05.358Z,4.97
2018-07-26T15:15:39.823Z,5.20
2018-07-26T15:18:15.339Z,4.90
2018-07-26T15:20:49.780Z,4.80
2018-07-26T15:23:25.300Z,4.90
2018-07-26T15:26:00.720Z,5.23
2018-07-26T15:28:36.213Z,5.17
2018-07-26T15:31:10.741Z,5.07
2018-07-26T15:33:45.336Z,4.37
2018-07-26T15:36:19.295Z,5.20
2018-07-26T15:38:53.759Z,4.73
2018-07-26T15:41:27.712Z,4.80
2018-07-26T15:44:02.211Z,4.60
2018-07-26T15:46:36.618Z,5.00
2018-07-26T15:49:12.027Z,5.43
2018-07-26T15:51:46.452Z,5.07
2018-07-26T15:54:21.950Z,5.60
2018-07-26T15:56:56.466Z,4.70
2018-07-26T15:59:30.929Z,5.00
2018-07-26T16:02:05.364Z,5.40
2018-07-26T16:04:39.838Z,4.70
2018-07-26T16:07:14.252Z,4.87
2018-07-26T16:09:48.719Z,4.67
2018-07-26T16:12:23.223Z,5.10
2018-07-26T16:14:57.327Z,4.60
2018-07-26T16:17:31.894Z,5.13
2018-07-26T16:20:08.792Z,5.13
2018-07-26T16:22:44.241Z,5.40
2018-07-26T16:25:22.824Z,5.03
2018-07-26T16:27:56.778Z,5.33
2018-07-26T16:30:31.249Z,5.23
2018-07-26T16:33:05.697Z,5.23
2018-07-26T16:35:40.182Z,4.90
2018-07-26T16:38:14.613Z,5.20
2018-07-26T16:40:48.602Z,4.80
2018-07-26T16:43:23.015Z,5.17
2018-07-26T16:45:58.465Z,4.70
2018-07-26T16:48:32.880Z,4.80
2018-07-26T16:51:07.739Z,4.80
2018-07-26T16:53:42.191Z,4.57
2018-07-26T16:56:17.663Z,4.50
2018-07-26T16:58:52.392Z,4.90
2018-07-26T17:01:27.048Z,5.03
2018-07-26T17:04:01.059Z,4.83
2018-07-26T17:06:35.675Z,5.10
2018-07-26T17:09:10.231Z,4.80
2018-07-26T17:11:44.727Z,4.87
2018-07-26T17:14:19.200Z,4.90
2018-07-26T17:16:53.680Z,5.00
2018-07-26T17:19:28.167Z,5.50
2018-07-26T17:22:02.753Z,4.57
2018-07-26T17:24:37.236Z,4.73
2018-07-26T17:27:11.674Z,4.93
2018-07-26T17:29:46.191Z,4.97
2018-07-26T17:32:20.599Z,4.30
2018-07-26T17:34:55.056Z,5.23
2018-07-26T17:37:29.489Z,5.10
2018-07-26T17:40:04.000Z,4.27
2018-07-26T17:42:38.636Z,4.30
2018-07-26T17:45:13.147Z,4.50
2018-07-26T17:47:47.728Z,5.03
2018-07-26T17:50:23.271Z,4.73
2018-07-26T17:52:57.860Z,4.90
2018-07-26T17:55:32.327Z,5.00
2018-07-26T17:58:07.799Z,5.23
2018-07-26T18:00:42.236Z,5.13
2018-07-26T18:03:16.663Z,5.27
2018-07-26T18:05:51.206Z,4.53
2018-07-26T18:08:25.789Z,4.97
2018-07-26T18:11:00.271Z,4.87
2018-07-26T18:13:34.692Z,4.63
2018-07-26T18:16:09.472Z,5.30
2018-07-26T18:18:44.909Z,5.53
2018-07-26T18:21:19.608Z,5.47
2018-07-26T18:23:54.389Z,5.37
2018-07-26T18:26:29.696Z,5.08
2018-07-26T18:29:04.499Z,4.67
2018-07-26T18:31:39.361Z,4.72
2018-07-26T18:34:14.221Z,4.70
2018-07-26T18:36:48.711Z,5.40
2018-07-26T18:39:23.418Z,4.70
2018-07-26T18:41:58.171Z,5.08
2018-07-26T18:44:33.933Z,4.20
2018-07-26T18:47:08.687Z,4.75
2018-07-26T18:49:43.170Z,4.57
2018-07-26T18:52:18.093Z,4.70
2018-07-26T18:54:52.908Z,4.33
2018-07-26T18:57:28.775Z,4.83
2018-07-26T19:00:03.585Z,4.78
2018-07-26T19:02:38.627Z,5.08
2018-07-26T19:05:13.478Z,4.28
2018-07-26T19:07:49.416Z,5.05
2018-07-26T19:10:25.229Z,4.97
2018-07-26T19:13:01.178Z,4.53
2018-07-26T19:15:36.003Z,4.45
2018-07-26T19:18:11.744Z,4.47
2018-07-26T19:20:46.504Z,4.65
2018-07-26T19:23:21.203Z,4.30
2018-07-26T19:25:56.056Z,4.80
2018-07-26T19:28:30.943Z,4.80
2018-07-26T19:31:05.850Z,4.55
2018-07-26T19:33:40.599Z,5.08
2018-07-26T19:36:14.916Z,4.90
2018-07-26T19:38:49.842Z,5.08
2018-07-26T19:41:24.581Z,5.22
2018-07-26T19:43:59.447Z,5.55
2018-07-26T19:46:34.064Z,5.20
2018-07-26T19:49:08.800Z,5.20
2018-07-26T19:51:43.588Z,5.20
2018-07-26T19:54:18.403Z,5.20
2018-07-26T19:56:52.851Z,5.63
2018-07-26T19:59:28.813Z,5.50
2018-07-26T20:02:04.976Z,5.35
2018-07-26T20:04:40.728Z,5.55
2018-07-26T20:07:15.466Z,5.40
2018-07-26T20:09:50.184Z,5.55
2018-07-26T20:12:26.127Z,5.15
2018-07-26T20:15:00.877Z,5.50
2018-07-26T20:17:35.696Z,5.47
2018-07-26T20:20:11.906Z,5.50
2018-07-26T20:22:47.740Z,5.97
2018-07-26T20:25:22.513Z,5.85
2018-07-26T20:27:57.402Z,5.85
2018-07-26T20:30:32.282Z,5.85
2018-07-26T20:33:07.109Z,6.92
2018-07-26T20:35:41.881Z,6.12
2018-07-26T20:38:17.628Z,6.05
2018-07-26T20:40:53.737Z,6.20
2018-07-26T20:43:28.553Z,6.75
2018-07-26T20:46:03.265Z,5.87
2018-07-26T20:48:37.676Z,5.87
2018-07-26T20:51:13.016Z,5.80
2018-07-26T20:53:47.280Z,5.42
2018-07-26T20:56:21.958Z,5.60
2018-07-26T20:58:57.737Z,5.40
2018-07-26T21:01:33.453Z,5.15
2018-07-26T21:04:08.276Z,5.90
2018-07-26T21:06:43.049Z,5.42
2018-07-26T21:09:17.705Z,5.95
2018-07-26T21:11:53.423Z,5.80
2018-07-26T21:14:28.110Z,5.78
2018-07-26T21:17:02.371Z,6.28
2018-07-26T21:19:38.077Z,5.75
2018-07-26T21:22:13.343Z,6.15
2018-07-26T21:24:49.110Z,6.30
2018-07-26T21:27:23.813Z,6.40
2018-07-26T21:29:58.516Z,6.70
2018-07-26T21:32:32.788Z,7.28
2018-07-26T21:35:08.105Z,6.50
2018-07-26T21:37:42.861Z,6.65
2018-07-26T21:40:18.546Z,6.58
2018-07-26T21:42:53.319Z,6.80
2018-07-26T21:45:28.032Z,6.97
2018-07-26T21:48:02.810Z,7.65
2018-07-26T21:50:37.584Z,6.95
2018-07-26T21:53:12.683Z,7.08
2018-07-26T21:55:48.459Z,6.75
2018-07-26T21:58:23.215Z,6.45
2018-07-26T22:00:58.965Z,7.75
2018-07-26T22:03:33.728Z,6.70
2018-07-26T22:06:08.471Z,7.15
2018-07-26T22:08:43.253Z,7.08
2018-07-26T22:11:18.165Z,7.28
2018-07-26T22:13:52.942Z,7.60
2018-07-26T22:16:27.683Z,7.47
2018-07-26T22:19:02.002Z,7.95
2018-07-26T22:21:37.786Z,10.30
2018-07-26T22:24:12.573Z,9.15
2018-07-26T22:26:46.784Z,9.35
2018-07-26T22:29:21.547Z,9.58
2018-07-26T22:31:56.336Z,8.08
2018-07-26T22:34:31.096Z,8.18
2018-07-26T22:37:06.928Z,7.97
2018-07-26T22:39:41.657Z,8.10
2018-07-26T22:42:15.911Z,7.85
2018-07-26T22:44:50.719Z,8.45
2018-07-26T22:47:25.448Z,9.00
2018-07-26T22:50:00.211Z,9.55
2018-07-26T22:52:35.175Z,9.55
2018-07-26T22:55:10.955Z,9.48
2018-07-26T22:57:45.672Z,9.48
2018-07-26T23:00:20.441Z,9.00
2018-07-26T23:02:55.573Z,10.00
2018-07-26T23:05:30.348Z,8.73
2018-07-26T23:08:04.673Z,8.15
2018-07-26T23:10:40.447Z,8.95
2018-07-26T23:13:16.183Z,8.53
2018-07-26T23:15:52.274Z,8.55
2018-07-26T23:18:27.027Z,8.65
2018-07-26T23:21:01.282Z,9.38
2018-07-26T23:23:36.769Z,8.93
2018-07-26T23:26:11.554Z,9.88
2018-07-26T23:28:47.355Z,9.25
2018-07-26T23:31:22.094Z,9.08
2018-07-26T23:33:57.865Z,9.10
2018-07-26T23:36:32.803Z,9.20
2018-07-26T23:39:10.083Z,9.10
2018-07-26T23:41:44.841Z,8.53
2018-07-26T23:44:19.595Z,9.40
2018-07-26T23:46:54.332Z,9.80
2018-07-26T23:49:29.104Z,9.53
2018-07-26T23:52:03.898Z,9.53
2018-07-26T23:54:39.182Z,9.93
2018-07-26T23:57:13.909Z,10.08
